createdAt,value
2022-08-14T00:01:58.618Z,20.52
2022-08-14T00:04:59.567Z,20.56
2022-08-14T00:07:42.295Z,20.60
2022-08-14T00:10:50.073Z,20.61
2022-08-14T00:13:28.997Z,20.61
2022-08-14T00:16:41.274Z,20.62
2022-08-14T00:19:21.577Z,20.66
2022-08-14T00:22:44.216Z,20.65
2022-08-14T00:25:16.835Z,20.64
2022-08-14T00:28:17.869Z,20.63
2022-08-14T00:30:51.187Z,20.65
2022-08-14T00:33:52.247Z,20.65
2022-08-14T00:36:36.153Z,20.63
2022-08-14T00:39:23.293Z,20.63
2022-08-14T00:42:52.494Z,20.62
2022-08-14T00:45:20.797Z,20.60
2022-08-14T00:47:50.361Z,20.62
2022-08-14T00:50:36.615Z,20.64
2022-08-14T00:53:10.522Z,20.63
2022-08-14T00:56:02.356Z,20.62
2022-08-14T00:59:08.118Z,20.60
2022-08-14T01:01:46.338Z,20.40
2022-08-14T01:04:51.015Z,20.21
2022-08-14T01:07:38.969Z,20.07
2022-08-14T01:10:53.349Z,19.96
2022-08-14T01:13:43.091Z,19.86
2022-08-14T01:16:30.845Z,19.75
2022-08-14T01:19:20.119Z,19.65
2022-08-14T01:22:05.123Z,19.57
2022-08-14T01:24:36.750Z,19.56
2022-08-14T01:27:36.642Z,19.56
2022-08-14T01:30:39.801Z,19.54
2022-08-14T01:33:19.989Z,19.51
2022-08-14T01:36:05.700Z,19.54
2022-08-14T01:39:03.836Z,19.53
2022-08-14T01:42:03.540Z,19.53
2022-08-14T01:45:17.983Z,19.49
2022-08-14T01:48:13.718Z,19.48
2022-08-14T01:51:03.047Z,19.52
2022-08-14T01:53:45.517Z,19.49
2022-08-14T01:56:20.946Z,19.49
2022-08-14T01:58:57.518Z,19.53
2022-08-14T02:01:51.294Z,19.59
2022-08-14T02:04:57.799Z,19.64
2022-08-14T02:08:08.609Z,19.66
2022-08-14T02:10:52.566Z,19.55
2022-08-14T02:13:37.130Z,19.50
2022-08-14T02:16:27.525Z,19.52
2022-08-14T02:19:10.870Z,19.46
2022-08-14T02:21:54.664Z,19.39
2022-08-14T02:24:39.154Z,19.35
2022-08-14T02:28:21.945Z,19.31
2022-08-14T02:30:27.297Z,19.25
2022-08-14T02:33:12.388Z,19.19
2022-08-14T02:35:56.647Z,19.18
2022-08-14T02:38:43.114Z,19.22
2022-08-14T02:41:45.065Z,19.25
2022-08-14T02:44:41.833Z,19.24
2022-08-14T02:47:53.870Z,19.24
2022-08-14T02:50:35.761Z,19.20
2022-08-14T02:53:31.452Z,19.23
2022-08-14T02:57:15.546Z,19.26
2022-08-14T02:59:33.842Z,19.14
2022-08-14T03:02:49.222Z,19.12
2022-08-14T03:05:57.430Z,19.08
2022-08-14T03:08:34.682Z,19.08
2022-08-14T03:11:34.723Z,19.08
2022-08-14T03:14:35.212Z,19.07
2022-08-14T03:17:25.456Z,19.06
2022-08-14T03:20:06.029Z,18.99
2022-08-14T03:22:47.036Z,18.93
2022-08-14T03:25:23.514Z,18.95
2022-08-14T03:28:32.952Z,18.95
2022-08-14T03:31:13.249Z,18.95
2022-08-14T03:34:05.626Z,18.93
2022-08-14T03:37:29.024Z,18.88
2022-08-14T03:40:04.466Z,18.84
2022-08-14T03:42:52.800Z,18.80
2022-08-14T03:45:35.146Z,18.79
2022-08-14T03:48:30.701Z,18.80
2022-08-14T03:51:08.772Z,18.84
2022-08-14T03:54:20.618Z,18.86
2022-08-14T03:57:02.427Z,18.87
2022-08-14T04:00:02.288Z,18.87
2022-08-14T04:02:37.412Z,18.88
2022-08-14T04:05:22.973Z,18.91
2022-08-14T04:08:29.930Z,18.87
2022-08-14T04:11:10.489Z,18.86
2022-08-14T04:13:57.943Z,18.88
2022-08-14T04:16:53.289Z,18.87
2022-08-14T04:19:36.443Z,18.85
2022-08-14T04:22:16.651Z,18.88
2022-08-14T04:24:49.573Z,18.86
2022-08-14T04:27:33.829Z,18.87
2022-08-14T04:30:32.619Z,18.86
2022-08-14T04:33:26.656Z,18.89
2022-08-14T04:36:02.959Z,18.89
2022-08-14T04:39:02.127Z,18.85
2022-08-14T04:42:08.139Z,18.88
2022-08-14T04:45:04.373Z,18.91
2022-08-14T04:47:55.873Z,18.96
2022-08-14T04:51:04.384Z,18.97
2022-08-14T04:53:44.844Z,18.97
2022-08-14T04:56:34.021Z,18.99
2022-08-14T04:59:19.950Z,19.02
2022-08-14T05:02:16.471Z,19.06
2022-08-14T05:04:58.782Z,19.11
2022-08-14T05:07:54.333Z,19.13
2022-08-14T05:10:57.353Z,19.15
2022-08-14T05:13:53.187Z,19.18
2022-08-14T05:17:12.850Z,19.28
2022-08-14T05:21:57.782Z,19.39
2022-08-14T05:23:18.949Z,19.48
2022-08-14T05:26:01.380Z,19.51
2022-08-14T05:28:50.419Z,19.48
2022-08-14T05:31:22.592Z,19.41
2022-08-14T05:34:17.675Z,19.40
2022-08-14T05:37:02.028Z,19.36
2022-08-14T05:39:56.434Z,19.36
2022-08-14T05:42:37.920Z,19.41
2022-08-14T05:45:14.291Z,19.48
2022-08-14T05:47:51.066Z,19.52
2022-08-14T05:50:39.127Z,19.52
2022-08-14T05:53:11.391Z,19.52
2022-08-14T05:56:11.057Z,19.51
2022-08-14T05:58:48.991Z,19.53
2022-08-14T06:01:39.336Z,19.54
2022-08-14T06:04:07.957Z,19.60
2022-08-14T06:06:50.098Z,19.70
2022-08-14T06:09:51.007Z,19.78
2022-08-14T06:12:56.348Z,19.86
2022-08-14T06:15:39.210Z,19.93
2022-08-14T06:18:20.289Z,20.01
2022-08-14T06:20:54.621Z,20.07
2022-08-14T06:23:48.960Z,20.19
2022-08-14T06:26:30.501Z,20.35
2022-08-14T06:29:20.929Z,20.51
2022-08-14T06:32:00.511Z,20.67
2022-08-14T06:35:16.511Z,20.85
2022-08-14T06:37:59.288Z,20.90
2022-08-14T06:40:50.591Z,20.97
2022-08-14T06:43:32.923Z,21.11
2022-08-14T06:46:32.306Z,21.19
2022-08-14T06:49:02.777Z,21.14
2022-08-14T06:51:51.105Z,21.10
2022-08-14T06:54:35.805Z,21.14
2022-08-14T06:57:24.792Z,21.17
2022-08-14T07:00:07.734Z,21.18
2022-08-14T07:02:57.399Z,21.19
2022-08-14T07:05:55.282Z,21.19
2022-08-14T07:08:40.387Z,21.28
2022-08-14T07:11:24.041Z,21.37
2022-08-14T07:14:14.635Z,21.44
2022-08-14T07:17:31.959Z,21.45
2022-08-14T07:20:33.691Z,21.45
2022-08-14T07:23:33.913Z,21.48
2022-08-14T07:26:17.377Z,21.58
2022-08-14T07:28:53.494Z,21.70
2022-08-14T07:31:44.001Z,21.85
2022-08-14T07:34:35.922Z,22.02
2022-08-14T07:37:44.537Z,22.09
2022-08-14T07:40:35.573Z,22.26
2022-08-14T07:43:14.602Z,22.38
2022-08-14T07:45:58.643Z,22.43
2022-08-14T07:48:48.554Z,22.50
2022-08-14T07:51:20.370Z,22.55
2022-08-14T07:54:16.548Z,22.67
2022-08-14T07:57:20.406Z,22.72
2022-08-14T08:00:30.939Z,22.76
2022-08-14T08:03:11.075Z,22.74
2022-08-14T08:05:51.777Z,22.67
2022-08-14T08:08:27.885Z,22.65
2022-08-14T08:11:15.176Z,22.68
2022-08-14T08:13:57.058Z,22.75
2022-08-14T08:16:39.519Z,22.87
2022-08-14T08:19:22.269Z,23.01
2022-08-14T08:22:16.714Z,23.04
2022-08-14T08:24:45.208Z,23.09
2022-08-14T08:27:24.575Z,23.14
2022-08-14T08:30:13.897Z,23.14
2022-08-14T08:33:04.482Z,23.17
2022-08-14T08:35:46.906Z,23.23
2022-08-14T08:39:17.928Z,23.36
2022-08-14T08:42:08.718Z,23.43
2022-08-14T08:44:52.822Z,23.50
2022-08-14T08:47:40.274Z,23.54
2022-08-14T08:50:31.902Z,23.53
2022-08-14T08:53:10.888Z,23.55
2022-08-14T08:55:50.121Z,23.64
2022-08-14T08:58:31.654Z,23.73
2022-08-14T09:01:14.377Z,23.83
2022-08-14T09:04:04.608Z,23.91
2022-08-14T09:07:10.424Z,24.04
2022-08-14T09:09:59.961Z,24.10
2022-08-14T09:12:35.882Z,24.18
2022-08-14T09:15:27.188Z,24.28
2022-08-14T09:18:24.044Z,24.36
2022-08-14T09:21:08.156Z,24.32
2022-08-14T09:24:26.980Z,24.33
2022-08-14T09:26:41.563Z,24.37
2022-08-14T09:29:23.253Z,24.39
2022-08-14T09:31:57.633Z,24.41
2022-08-14T09:35:21.949Z,24.52
2022-08-14T09:38:15.515Z,24.71
2022-08-14T09:42:20.766Z,24.74
2022-08-14T09:44:55.735Z,25.13
2022-08-14T09:47:51.745Z,25.56
2022-08-14T09:50:50.566Z,25.85
2022-08-14T09:54:19.135Z,26.01
2022-08-14T09:56:57.329Z,26.21
2022-08-14T09:59:59.856Z,26.30
2022-08-14T10:02:38.681Z,26.02
2022-08-14T10:05:39.045Z,25.92
2022-08-14T10:08:28.108Z,26.07
2022-08-14T10:11:23.230Z,26.19
2022-08-14T10:14:34.914Z,26.12
2022-08-14T10:17:33.131Z,26.45
2022-08-14T10:20:41.074Z,26.99
2022-08-14T10:23:49.562Z,27.10
2022-08-14T10:27:00.842Z,26.54
2022-08-14T10:30:12.222Z,26.28
2022-08-14T10:32:51.662Z,26.38
2022-08-14T10:35:31.118Z,26.40
2022-08-14T10:38:20.319Z,26.30
2022-08-14T10:41:21.768Z,26.43
2022-08-14T10:44:52.562Z,26.50
2022-08-14T10:48:07.846Z,26.59
2022-08-14T10:50:45.755Z,27.14
2022-08-14T10:53:29.525Z,27.47
2022-08-14T10:56:40.698Z,27.70
2022-08-14T11:00:01.668Z,27.68
2022-08-14T11:02:56.866Z,27.45
2022-08-14T11:05:57.299Z,26.97
2022-08-14T11:08:43.223Z,26.63
2022-08-14T11:11:37.022Z,26.46
2022-08-14T11:14:28.194Z,26.35
2022-08-14T11:16:58.036Z,26.13
2022-08-14T11:19:39.323Z,25.92
2022-08-14T11:23:03.186Z,26.13
2022-08-14T11:25:55.975Z,26.61
2022-08-14T11:28:50.559Z,26.96
2022-08-14T11:31:51.738Z,26.89
2022-08-14T11:34:36.677Z,26.94
2022-08-14T11:37:33.901Z,27.18
2022-08-14T11:40:28.612Z,27.64
2022-08-14T11:43:01.227Z,27.86
2022-08-14T11:45:44.958Z,28.02
2022-08-14T11:49:04.216Z,27.87
2022-08-14T11:51:35.919Z,27.64
2022-08-14T11:54:58.900Z,27.72
2022-08-14T11:57:59.630Z,27.94
2022-08-14T12:00:46.240Z,28.01
2022-08-14T12:03:46.128Z,27.82
2022-08-14T12:06:49.180Z,27.66
2022-08-14T12:09:44.993Z,27.36
2022-08-14T12:12:47.030Z,27.00
2022-08-14T12:15:38.023Z,26.97
2022-08-14T12:18:32.426Z,27.38
2022-08-14T12:21:24.087Z,27.66
2022-08-14T12:24:36.174Z,27.76
2022-08-14T12:27:17.037Z,27.77
2022-08-14T12:30:01.109Z,27.69
2022-08-14T12:32:50.887Z,27.94
2022-08-14T12:35:25.820Z,28.26
2022-08-14T12:38:04.290Z,28.45
2022-08-14T12:41:08.021Z,28.55
2022-08-14T12:44:08.455Z,28.69
2022-08-14T12:46:46.901Z,28.58
2022-08-14T12:49:30.374Z,28.35
2022-08-14T12:52:16.963Z,28.37
2022-08-14T12:55:10.718Z,28.22
2022-08-14T12:58:35.487Z,27.95
2022-08-14T13:01:16.477Z,27.88
2022-08-14T13:03:52.092Z,28.26
2022-08-14T13:06:37.661Z,28.64
2022-08-14T13:09:36.553Z,29.10
2022-08-14T13:12:39.786Z,29.44
2022-08-14T13:15:46.756Z,29.29
2022-08-14T13:18:29.637Z,29.43
2022-08-14T13:21:16.707Z,29.49
2022-08-14T13:23:56.764Z,29.02
2022-08-14T13:27:13.291Z,28.73
2022-08-14T13:29:47.099Z,28.68
2022-08-14T13:32:39.148Z,28.62
2022-08-14T13:35:23.644Z,28.79
2022-08-14T13:38:15.229Z,28.82
2022-08-14T13:41:15.368Z,28.95
2022-08-14T13:43:59.921Z,29.25
2022-08-14T13:46:39.740Z,29.60
2022-08-14T13:49:23.996Z,29.75
2022-08-14T13:52:48.323Z,29.69
2022-08-14T13:55:05.548Z,29.65
2022-08-14T13:58:03.604Z,29.65
2022-08-14T14:01:20.458Z,29.37
2022-08-14T14:04:12.131Z,29.24
2022-08-14T14:07:09.780Z,29.31
2022-08-14T14:10:19.312Z,29.25
2022-08-14T14:13:06.342Z,29.33
2022-08-14T14:15:48.694Z,29.40
2022-08-14T14:18:52.073Z,29.54
2022-08-14T14:21:34.869Z,29.53
2022-08-14T14:24:17.316Z,29.58
2022-08-14T14:26:51.964Z,29.67
2022-08-14T14:29:26.515Z,29.56
2022-08-14T14:32:21.491Z,29.43
2022-08-14T14:35:09.324Z,29.39
2022-08-14T14:38:03.626Z,29.40
2022-08-14T14:41:01.098Z,29.24
2022-08-14T14:43:52.849Z,28.94
2022-08-14T14:46:53.399Z,28.83
2022-08-14T14:49:50.873Z,28.73
2022-08-14T14:52:45.981Z,28.49
2022-08-14T14:55:43.214Z,28.18
2022-08-14T14:59:01.743Z,28.05
2022-08-14T15:01:49.808Z,27.90
2022-08-14T15:04:47.707Z,27.55
2022-08-14T15:07:27.498Z,27.51
2022-08-14T15:10:35.368Z,27.60
2022-08-14T15:13:22.029Z,27.66
2022-08-14T15:16:09.900Z,27.48
2022-08-14T15:19:02.930Z,27.45
2022-08-14T15:21:42.801Z,27.44
2022-08-14T15:24:26.776Z,27.30
2022-08-14T15:27:04.982Z,27.07
2022-08-14T15:29:45.705Z,26.90
2022-08-14T15:32:33.035Z,26.80
2022-08-14T15:35:18.940Z,26.84
2022-08-14T15:38:08.675Z,26.95
2022-08-14T15:41:08.542Z,26.99
2022-08-14T15:44:01.426Z,26.93
2022-08-14T15:46:45.526Z,26.84
2022-08-14T15:49:35.553Z,26.78
2022-08-14T15:52:14.328Z,26.73
2022-08-14T15:55:15.362Z,26.65
2022-08-14T15:58:04.958Z,26.62
2022-08-14T16:00:58.224Z,26.65
2022-08-14T16:03:47.387Z,26.67
2022-08-14T16:06:33.606Z,26.66
2022-08-14T16:09:31.785Z,26.66
2022-08-14T16:12:13.371Z,26.67
2022-08-14T16:14:51.365Z,26.66
2022-08-14T16:17:35.199Z,26.65
2022-08-14T16:20:41.580Z,26.67
2022-08-14T16:23:27.734Z,26.67
2022-08-14T16:26:19.324Z,26.58
2022-08-14T16:29:15.446Z,26.51
2022-08-14T16:31:50.919Z,26.42
2022-08-14T16:34:45.821Z,26.36
2022-08-14T16:37:35.335Z,26.33
2022-08-14T16:43:03.868Z,26.18
2022-08-14T16:46:03.894Z,26.15
2022-08-14T16:48:58.141Z,26.13
2022-08-14T16:51:53.179Z,26.11
2022-08-14T16:54:44.710Z,26.05
2022-08-14T16:57:27.608Z,25.96
2022-08-14T17:00:28.095Z,25.88
2022-08-14T17:03:18.561Z,25.85
2022-08-14T17:05:50.691Z,25.82
2022-08-14T17:08:59.964Z,25.79
2022-08-14T17:11:37.354Z,25.79
2022-08-14T17:14:15.782Z,25.78
2022-08-14T17:17:05.589Z,25.76
2022-08-14T17:19:55.900Z,25.74
2022-08-14T17:22:53.783Z,25.75
2022-08-14T17:25:26.702Z,25.75
2022-08-14T17:28:51.569Z,25.74
2022-08-14T17:31:15.931Z,25.72
2022-08-14T17:33:53.954Z,25.70
2022-08-14T17:36:41.515Z,25.68
2022-08-14T17:39:19.391Z,25.65
2022-08-14T17:42:03.726Z,25.60
2022-08-14T17:45:26.832Z,25.59
2022-08-14T17:49:10.733Z,25.57
2022-08-14T17:51:38.203Z,25.53
2022-08-14T17:54:44.359Z,25.48
2022-08-14T17:57:46.153Z,25.42
2022-08-14T18:00:33.192Z,25.37
2022-08-14T18:03:50.019Z,25.33
2022-08-14T18:06:38.259Z,25.21
2022-08-14T18:09:25.042Z,25.13
2022-08-14T18:12:03.648Z,25.10
2022-08-14T18:14:48.925Z,25.06
2022-08-14T18:17:34.036Z,24.99
2022-08-14T18:21:40.263Z,24.92
2022-08-14T18:23:51.762Z,24.85
2022-08-14T18:26:36.898Z,24.79
2022-08-14T18:29:19.983Z,24.74
2022-08-14T18:32:01.740Z,24.57
2022-08-14T18:35:11.289Z,24.15
2022-08-14T18:38:25.555Z,23.72
2022-08-14T18:41:41.228Z,23.28
2022-08-14T18:44:33.262Z,23.05
2022-08-14T18:47:21.331Z,22.85
2022-08-14T18:50:03.670Z,22.66
2022-08-14T18:53:34.598Z,22.51
2022-08-14T18:56:40.946Z,22.41
2022-08-14T19:00:23.656Z,22.30
2022-08-14T19:03:32.919Z,22.11
2022-08-14T19:06:08.094Z,22.02
2022-08-14T19:08:53.680Z,21.91
2022-08-14T19:12:01.605Z,21.79
2022-08-14T19:14:47.570Z,21.66
2022-08-14T19:18:10.638Z,21.58
2022-08-14T19:21:15.014Z,21.45
2022-08-14T19:24:29.650Z,21.36
2022-08-14T19:27:23.627Z,21.29
2022-08-14T19:30:21.223Z,21.28
2022-08-14T19:33:39.073Z,21.30
2022-08-14T19:37:15.404Z,21.30
2022-08-14T19:40:15.648Z,21.28
2022-08-14T19:43:22.735Z,21.31
2022-08-14T19:47:02.664Z,21.33
2022-08-14T19:50:25.041Z,21.31
2022-08-14T19:53:17.867Z,21.32
2022-08-14T19:56:12.128Z,21.31
2022-08-14T19:59:14.878Z,21.27
2022-08-14T20:02:05.967Z,21.26
2022-08-14T20:04:57.699Z,21.23
2022-08-14T20:07:59.507Z,21.22
2022-08-14T20:12:00.875Z,21.23
2022-08-14T20:14:35.450Z,21.22
2022-08-14T20:17:30.985Z,21.21
2022-08-14T20:20:32.874Z,21.20
2022-08-14T20:23:38.375Z,21.20
2022-08-14T20:26:31.220Z,21.19
2022-08-14T20:29:23.342Z,21.19
2022-08-14T20:32:25.101Z,21.18
2022-08-14T20:35:17.378Z,21.18
2022-08-14T20:38:30.252Z,21.21
2022-08-14T20:41:34.686Z,21.25
2022-08-14T20:44:28.706Z,21.21
2022-08-14T20:47:24.588Z,21.21
2022-08-14T20:50:16.316Z,21.18
2022-08-14T20:53:20.379Z,21.15
2022-08-14T20:56:03.522Z,21.12
2022-08-14T20:58:44.470Z,21.06
2022-08-14T21:01:33.089Z,20.98
2022-08-14T21:04:21.265Z,20.91
2022-08-14T21:07:33.451Z,20.78
2022-08-14T21:10:36.139Z,20.65
2022-08-14T21:14:20.901Z,20.53
2022-08-14T21:16:58.298Z,20.51
2022-08-14T21:20:25.527Z,20.54
2022-08-14T21:23:18.661Z,20.57
2022-08-14T21:25:57.392Z,20.52
2022-08-14T21:28:44.757Z,20.54
2022-08-14T21:31:33.962Z,20.59
2022-08-14T21:34:27.414Z,20.60
2022-08-14T21:37:17.431Z,20.62
2022-08-14T21:40:40.036Z,20.61
2022-08-14T21:43:31.519Z,20.58
2022-08-14T21:46:04.313Z,20.53
2022-08-14T21:48:47.968Z,20.50
2022-08-14T21:51:55.384Z,20.49
2022-08-14T21:54:50.438Z,20.48
2022-08-14T21:57:56.372Z,20.49
2022-08-14T22:00:44.780Z,20.48
2022-08-14T22:03:54.430Z,20.40
2022-08-14T22:06:30.023Z,20.31
2022-08-14T22:09:32.451Z,20.30
2022-08-14T22:12:47.257Z,20.31
2022-08-14T22:15:12.321Z,20.33
2022-08-14T22:17:56.958Z,20.35
2022-08-14T22:20:56.799Z,20.36
2022-08-14T22:23:49.590Z,20.37
2022-08-14T22:26:32.472Z,20.42
2022-08-14T22:29:01.452Z,20.43
2022-08-14T22:32:07.228Z,20.38
2022-08-14T22:34:52.756Z,20.35
2022-08-14T22:37:44.470Z,20.36
2022-08-14T22:40:46.155Z,20.34
2022-08-14T22:43:39.863Z,20.30
2022-08-14T22:46:20.987Z,20.28
2022-08-14T22:48:57.618Z,20.27
2022-08-14T22:51:48.604Z,20.31
2022-08-14T22:54:52.925Z,20.33
2022-08-14T22:57:56.294Z,20.36
2022-08-14T23:00:41.835Z,20.40
2022-08-14T23:03:30.895Z,20.39
2022-08-14T23:07:03.076Z,20.35
2022-08-14T23:09:02.140Z,20.33
2022-08-14T23:12:01.418Z,20.35
2022-08-14T23:14:41.761Z,20.40
2022-08-14T23:17:27.804Z,20.45
2022-08-14T23:20:21.700Z,20.48
2022-08-14T23:23:00.204Z,20.48
2022-08-14T23:26:47.041Z,20.40
2022-08-14T23:29:54.268Z,20.36
2022-08-14T23:32:48.922Z,20.36
2022-08-14T23:35:59.221Z,20.36
2022-08-14T23:39:24.321Z,20.31
2022-08-14T23:42:39.661Z,20.32
2022-08-14T23:45:49.473Z,20.33
2022-08-14T23:48:38.591Z,20.31
2022-08-14T23:52:51.543Z,20.30
2022-08-14T23:55:45.866Z,20.37
2022-08-14T23:58:49.239Z,20.36
